createdAt,value
2022-10-11T00:02:35.248Z,8.35
2022-10-11T00:07:43.842Z,8.95
2022-10-11T00:12:53.439Z,7.95
2022-10-11T00:18:00.140Z,7.05
2022-10-11T00:23:08.185Z,5.75
2022-10-11T00:28:19.159Z,6.55
2022-10-11T00:33:22.642Z,8.15
2022-10-11T00:38:27.441Z,5.95
2022-10-11T00:43:35.680Z,8.75
2022-10-11T00:48:43.091Z,10.95
2022-10-11T00:53:52.710Z,9.07
2022-10-11T00:59:00.905Z,10.13
2022-10-11T01:04:08.946Z,9.93
2022-10-11T01:09:14.912Z,14.75
2022-10-11T01:14:41.840Z,5.55
2022-10-11T01:20:30.989Z,6.40
2022-10-11T01:25:49.395Z,11.05
2022-10-11T01:31:02.233Z,13.20
2022-10-11T01:36:14.449Z,11.25
2022-10-11T01:41:24.251Z,12.57
2022-10-11T01:46:30.073Z,5.05
2022-10-11T01:51:42.993Z,4.75
2022-10-11T01:57:18.931Z,5.90
2022-10-11T02:02:43.208Z,7.53
2022-10-11T02:07:58.173Z,8.85
2022-10-11T02:13:12.691Z,10.82
2022-10-11T02:18:21.565Z,9.77
2022-10-11T02:23:29.633Z,6.90
2022-10-11T02:28:38.800Z,10.07
2022-10-11T02:33:48.353Z,8.13
2022-10-11T02:38:59.667Z,12.93
2022-10-11T02:44:10.300Z,14.52
2022-10-11T02:49:26.186Z,10.75
2022-10-11T02:54:39.784Z,18.20
2022-10-11T02:59:43.267Z,6.68
2022-10-11T03:04:49.418Z,3.97
2022-10-11T03:09:53.700Z,6.72
2022-10-11T03:14:59.788Z,4.90
2022-10-11T03:20:05.132Z,10.07
2022-10-11T03:25:08.897Z,10.02
2022-10-11T03:30:17.302Z,12.10
2022-10-11T03:35:23.153Z,13.43
2022-10-11T03:40:26.525Z,11.85
2022-10-11T03:45:29.822Z,11.57
2022-10-11T03:50:34.509Z,12.55
2022-10-11T03:55:40.584Z,13.00
2022-10-11T04:00:43.902Z,14.10
2022-10-11T04:05:48.869Z,8.52
2022-10-11T04:10:52.141Z,8.90
2022-10-11T04:15:55.371Z,7.68
2022-10-11T04:21:00.025Z,8.13
2022-10-11T04:26:08.871Z,7.28
2022-10-11T04:31:12.307Z,62.05
2022-10-11T04:36:21.609Z,32.60
2022-10-11T04:41:28.828Z,12.98
2022-10-11T04:46:41.733Z,15.70
2022-10-11T04:51:49.858Z,26.42
2022-10-11T04:56:55.363Z,23.58
2022-10-11T05:02:07.271Z,26.85
2022-10-11T05:07:12.168Z,33.90
2022-10-11T05:12:15.579Z,37.88
2022-10-11T05:17:19.008Z,31.30
2022-10-11T05:22:23.908Z,24.77
2022-10-11T05:27:27.130Z,23.88
2022-10-11T05:32:30.597Z,23.05
2022-10-11T05:37:35.200Z,19.20
2022-10-11T05:42:38.715Z,25.13
2022-10-11T05:47:41.986Z,18.60
2022-10-11T05:52:46.593Z,27.05
2022-10-11T05:57:49.985Z,22.30
2022-10-11T06:08:21.715Z,25.88
2022-10-11T06:13:24.885Z,18.88
2022-10-11T06:18:28.055Z,30.23
2022-10-11T06:23:32.804Z,26.35
2022-10-11T06:28:37.547Z,28.63
2022-10-11T06:33:41.101Z,29.75
2022-10-11T06:38:48.764Z,42.88
2022-10-11T06:43:52.454Z,27.83
2022-10-11T06:48:56.650Z,33.47
2022-10-11T06:54:01.977Z,29.85
2022-10-11T06:59:05.280Z,23.25
2022-10-11T07:04:10.029Z,28.10
2022-10-11T07:09:16.582Z,23.40
2022-10-11T07:19:49.123Z,29.48
2022-10-11T07:24:53.680Z,27.92
2022-10-11T07:29:56.933Z,32.05
2022-10-11T07:35:00.141Z,29.95
2022-10-11T07:40:07.037Z,21.35
2022-10-11T07:45:10.796Z,21.27
2022-10-11T07:50:14.068Z,24.20
2022-10-11T07:55:19.294Z,28.75
2022-10-11T08:00:22.825Z,30.58
2022-10-11T08:05:26.094Z,32.25
2022-10-11T08:10:30.897Z,26.23
2022-10-11T08:15:34.233Z,23.58
2022-10-11T08:20:40.124Z,30.77
2022-10-11T08:25:47.738Z,35.58
2022-10-11T08:30:51.971Z,27.13
2022-10-11T08:35:57.312Z,24.30
2022-10-11T08:41:02.535Z,31.98
2022-10-11T08:46:07.641Z,30.67
2022-10-11T08:51:19.734Z,24.73
2022-10-11T09:01:57.687Z,24.27
2022-10-11T09:07:08.961Z,22.42
2022-10-11T09:12:23.212Z,20.95
2022-10-11T09:17:53.306Z,21.10
2022-10-11T09:23:00.996Z,15.30
2022-10-11T09:28:16.690Z,18.58
2022-10-11T09:33:22.286Z,18.75
2022-10-11T09:38:36.977Z,23.50
2022-10-11T09:43:41.744Z,22.38
2022-10-11T09:48:45.014Z,24.70
2022-10-11T09:53:53.521Z,23.23
2022-10-11T09:59:22.271Z,22.35
2022-10-11T10:04:25.621Z,21.70
2022-10-11T10:09:31.373Z,19.83
2022-10-11T10:14:36.048Z,23.83
2022-10-11T10:19:45.201Z,18.80
2022-10-11T10:30:20.879Z,30.55
2022-10-11T10:41:06.472Z,29.65
2022-10-11T10:52:06.052Z,15.50
2022-10-11T10:57:17.466Z,25.73
2022-10-11T11:02:40.371Z,16.98
2022-10-11T11:07:48.394Z,31.92
2022-10-11T11:12:59.762Z,16.83
2022-10-11T11:23:54.980Z,20.60
2022-10-11T11:29:13.187Z,19.75
2022-10-11T11:34:23.538Z,18.90
2022-10-11T11:39:30.625Z,17.48
2022-10-11T11:44:37.964Z,25.00
2022-10-11T11:49:46.051Z,15.88
2022-10-11T11:54:58.077Z,22.63
2022-10-11T12:00:08.301Z,22.65
2022-10-11T12:05:15.995Z,20.95
2022-10-11T12:16:11.017Z,20.58
2022-10-11T12:21:22.697Z,22.90
2022-10-11T12:26:38.555Z,17.95
2022-10-11T12:31:45.990Z,19.90
2022-10-11T12:36:52.041Z,20.60
2022-10-11T12:42:08.471Z,16.35
2022-10-11T12:47:34.060Z,19.85
2022-10-11T12:52:49.686Z,19.85
2022-10-11T12:58:18.446Z,16.20
2022-10-11T13:03:32.571Z,15.70
2022-10-11T13:08:41.699Z,25.20
2022-10-11T13:13:53.020Z,24.45
2022-10-11T13:19:21.272Z,27.75
2022-10-11T13:24:35.504Z,26.75
2022-10-11T13:29:41.275Z,23.33
2022-10-11T13:34:48.644Z,18.85
2022-10-11T13:39:55.839Z,18.90
2022-10-11T13:44:59.729Z,16.65
2022-10-11T13:50:12.272Z,16.27
2022-10-11T13:55:26.040Z,23.10
2022-10-11T14:00:34.863Z,16.67
2022-10-11T14:05:40.940Z,19.00
2022-10-11T14:10:55.630Z,19.50
2022-10-11T14:16:02.947Z,16.85
2022-10-11T14:21:26.284Z,17.02
2022-10-11T14:32:05.879Z,18.75
2022-10-11T14:37:09.197Z,13.13
2022-10-11T14:42:13.918Z,20.50
2022-10-11T14:47:18.367Z,19.15
2022-10-11T14:52:21.698Z,17.70
2022-10-11T14:57:26.493Z,15.88
2022-10-11T15:02:29.805Z,19.20
2022-10-11T15:07:33.582Z,15.70
2022-10-11T15:12:38.300Z,19.73
2022-10-11T15:17:41.635Z,19.30
2022-10-11T15:22:45.354Z,18.67
2022-10-11T15:27:50.222Z,13.45
2022-10-11T15:32:54.312Z,17.15
2022-10-11T15:38:00.591Z,15.93
2022-10-11T15:43:05.622Z,17.70
2022-10-11T15:48:09.554Z,14.60
2022-10-11T15:53:14.797Z,24.15
2022-10-11T15:58:21.847Z,20.67
2022-10-11T16:03:27.018Z,12.35
2022-10-11T16:08:32.483Z,18.00
2022-10-11T16:13:37.724Z,18.60
2022-10-11T16:18:41.540Z,16.08
2022-10-11T16:23:44.954Z,19.20
2022-10-11T16:28:50.110Z,11.85
2022-10-11T16:33:54.016Z,20.50
2022-10-11T16:38:57.483Z,15.18
2022-10-11T16:44:03.655Z,17.38
2022-10-11T16:49:06.919Z,15.07
2022-10-11T16:54:10.433Z,22.65
2022-10-11T16:59:15.306Z,15.68
2022-10-11T17:04:18.690Z,17.73
2022-10-11T17:09:24.666Z,24.73
2022-10-11T17:14:29.701Z,29.92
2022-10-11T17:19:33.285Z,25.60
2022-10-11T17:24:38.800Z,24.40
2022-10-11T17:29:44.540Z,15.52
2022-10-11T17:34:50.471Z,21.92
2022-10-11T17:39:55.331Z,20.98
2022-10-11T17:45:00.252Z,14.48
2022-10-11T17:50:04.016Z,27.30
2022-10-11T17:55:08.849Z,19.15
2022-10-11T18:00:17.066Z,18.63
2022-10-11T18:05:20.369Z,18.50
2022-10-11T18:10:27.610Z,17.08
2022-10-11T18:15:33.309Z,20.02
2022-10-11T18:20:36.563Z,15.45
2022-10-11T18:25:39.970Z,29.25
2022-10-11T18:30:45.888Z,17.55
2022-10-11T18:35:50.297Z,31.98
2022-10-11T18:40:57.060Z,30.73
2022-10-11T18:46:11.770Z,21.70
2022-10-11T18:51:18.413Z,24.67
2022-10-11T18:56:24.635Z,13.90
2022-10-11T19:01:38.959Z,21.63
2022-10-11T19:06:44.887Z,17.95
2022-10-11T19:11:48.576Z,20.67
2022-10-11T19:16:54.319Z,21.02
2022-10-11T19:21:57.658Z,23.98
2022-10-11T19:27:05.706Z,27.38
2022-10-11T19:32:15.029Z,19.85
2022-10-11T19:37:19.183Z,21.75
2022-10-11T19:42:22.930Z,17.38
2022-10-11T19:47:27.977Z,17.92
2022-10-11T19:52:31.638Z,21.98
2022-10-11T19:57:35.046Z,23.40
2022-10-11T20:02:39.720Z,29.52
2022-10-11T20:07:42.904Z,20.52
2022-10-11T20:12:46.266Z,19.08
2022-10-11T20:17:52.003Z,17.80
2022-10-11T20:22:55.723Z,22.67
2022-10-11T20:27:59.191Z,22.58
2022-10-11T20:33:04.468Z,24.92
2022-10-11T20:38:07.745Z,23.13
2022-10-11T20:43:11.000Z,23.77
2022-10-11T20:48:15.601Z,22.17
2022-10-11T20:53:18.897Z,25.10
2022-10-11T20:58:22.921Z,22.10
2022-10-11T21:03:27.692Z,39.33
2022-10-11T21:08:31.124Z,33.88
2022-10-11T21:13:34.469Z,31.20
2022-10-11T21:18:39.191Z,27.75
2022-10-11T21:23:44.611Z,22.50
2022-10-11T21:28:52.662Z,18.75
2022-10-11T21:34:01.047Z,27.10
2022-10-11T21:39:04.327Z,35.55
2022-10-11T21:44:07.502Z,28.55
2022-10-11T21:49:12.068Z,26.30
2022-10-11T21:54:15.375Z,24.10
2022-10-11T21:59:18.835Z,22.40
2022-10-11T22:04:23.572Z,21.30
2022-10-11T22:09:27.978Z,24.60
2022-10-11T22:14:35.119Z,26.88
2022-10-11T22:19:39.768Z,24.00
2022-10-11T22:24:45.998Z,28.35
2022-10-11T22:29:49.308Z,26.27
2022-10-11T22:35:09.885Z,24.73
2022-10-11T22:40:13.426Z,22.40
2022-10-11T22:45:17.282Z,25.88
2022-10-11T22:50:27.080Z,24.10
2022-10-11T22:55:30.321Z,23.27
2022-10-11T23:00:34.220Z,24.40
2022-10-11T23:05:41.612Z,20.63
2022-10-11T23:10:44.862Z,26.63
2022-10-11T23:15:48.935Z,21.05
2022-10-11T23:20:53.591Z,17.88
2022-10-11T23:26:04.236Z,20.70
2022-10-11T23:31:09.428Z,21.15
2022-10-11T23:36:22.011Z,26.85
2022-10-11T23:41:26.285Z,30.00
2022-10-11T23:46:29.469Z,24.85
2022-10-11T23:51:34.409Z,25.17
2022-10-11T23:56:38.164Z,25.90
